createdAt,value
2023-02-25T00:00:34.951Z,97180.78
2023-02-25T00:03:01.991Z,97185.34
2023-02-25T00:05:31.979Z,97181.38
2023-02-25T00:07:59.422Z,97178.81
2023-02-25T00:30:43.322Z,97182.09
2023-02-25T00:35:44.098Z,97176.91
2023-02-25T00:38:16.016Z,97172.78
2023-02-25T00:40:43.108Z,97173.38
2023-02-25T00:43:09.868Z,97171.50
2023-02-25T00:45:39.492Z,97176.44
2023-02-25T00:48:06.794Z,97182.25
2023-02-25T00:50:33.404Z,97179.94
2023-02-25T00:52:59.975Z,97180.66
2023-02-25T00:55:33.578Z,97183.00
2023-02-25T00:58:01.467Z,97179.22
2023-02-25T01:00:28.842Z,97187.53
2023-02-25T01:02:57.165Z,97181.38
2023-02-25T01:05:23.906Z,97177.47
2023-02-25T01:07:50.660Z,97183.38
2023-02-25T01:10:17.567Z,97191.44
2023-02-25T01:12:44.077Z,97189.88
2023-02-25T01:15:11.220Z,97202.63
2023-02-25T01:17:37.806Z,97206.91
2023-02-25T01:20:11.273Z,97202.28
2023-02-25T01:22:41.714Z,97202.22
2023-02-25T01:30:18.476Z,97206.75
2023-02-25T01:32:45.061Z,97208.03
2023-02-25T01:35:11.624Z,97204.81
2023-02-25T01:37:38.120Z,97204.50
2023-02-25T01:40:05.713Z,97212.78
2023-02-25T01:42:32.312Z,97221.31
2023-02-25T01:45:20.381Z,97234.88
2023-02-25T01:47:51.967Z,97235.56
2023-02-25T01:50:20.164Z,97228.94
2023-02-25T01:52:47.281Z,97238.28
2023-02-25T01:55:14.007Z,97231.47
2023-02-25T01:57:40.758Z,97243.00
2023-02-25T02:00:12.615Z,97231.28
2023-02-25T02:05:12.396Z,97215.94
2023-02-25T02:07:38.942Z,97220.38
2023-02-25T02:12:45.768Z,97197.34
2023-02-25T02:15:15.282Z,97211.66
2023-02-25T02:18:02.901Z,97211.13
2023-02-25T02:20:50.925Z,97229.28
2023-02-25T02:23:46.269Z,97228.50
2023-02-25T02:26:44.607Z,97228.81
2023-02-25T02:29:59.568Z,97220.72
2023-02-25T02:32:47.470Z,97228.50
2023-02-25T02:35:36.818Z,97222.53
2023-02-25T02:41:09.750Z,97238.06
2023-02-25T02:43:58.634Z,97241.47
2023-02-25T02:46:30.599Z,97255.44
2023-02-25T02:49:05.717Z,97256.16
2023-02-25T02:51:40.741Z,97252.19
2023-02-25T02:54:09.763Z,97248.72
2023-02-25T02:56:41.093Z,97248.13
2023-02-25T02:59:12.611Z,97253.91
2023-02-25T03:01:44.371Z,97247.50
2023-02-25T03:04:17.587Z,97251.31
2023-02-25T03:06:48.818Z,97248.75
2023-02-25T03:09:22.730Z,97255.47
2023-02-25T03:11:49.500Z,97258.47
2023-02-25T03:14:16.048Z,97254.63
2023-02-25T03:16:51.539Z,97265.03
2023-02-25T03:19:21.647Z,97263.72
2023-02-25T03:22:05.596Z,97264.88
2023-02-25T03:24:59.281Z,97264.09
2023-02-25T03:27:36.593Z,97264.75
2023-02-25T03:30:12.727Z,97261.38
2023-02-25T03:32:49.553Z,97258.84
2023-02-25T03:35:19.057Z,97258.47
2023-02-25T03:37:50.163Z,97266.44
2023-02-25T03:40:19.764Z,97270.72
2023-02-25T03:42:54.666Z,97267.63
2023-02-25T03:45:21.770Z,97261.09
2023-02-25T03:58:08.673Z,97279.19
2023-02-25T04:00:37.346Z,97271.63
2023-02-25T04:03:04.499Z,97267.94
2023-02-25T04:05:31.265Z,97282.31
2023-02-25T04:07:59.315Z,97274.19
2023-02-25T04:10:26.111Z,97290.50
2023-02-25T04:12:52.652Z,97294.13
2023-02-25T04:17:59.772Z,97298.25
2023-02-25T04:20:26.318Z,97303.44
2023-02-25T04:22:52.807Z,97300.47
2023-02-25T04:25:19.414Z,97300.31
2023-02-25T04:27:46.128Z,97300.38
2023-02-25T04:30:18.500Z,97298.09
2023-02-25T04:32:45.280Z,97290.19
2023-02-25T04:35:12.276Z,97301.16
2023-02-25T04:37:40.292Z,97297.59
2023-02-25T04:40:13.692Z,97293.88
2023-02-25T04:42:40.956Z,97300.03
2023-02-25T04:45:09.396Z,97299.44
2023-02-25T04:47:36.874Z,97303.44
2023-02-25T04:50:04.454Z,97309.41
2023-02-25T04:52:31.433Z,97315.75
2023-02-25T04:54:57.932Z,97307.28
2023-02-25T04:57:24.879Z,97305.72
2023-02-25T04:59:51.512Z,97316.09
2023-02-25T05:02:18.096Z,97315.25
2023-02-25T05:04:44.807Z,97321.63
2023-02-25T05:07:11.414Z,97320.84
2023-02-25T05:09:37.967Z,97324.25
2023-02-25T05:12:04.742Z,97327.69
2023-02-25T05:14:32.967Z,97313.94
2023-02-25T05:16:59.588Z,97316.81
2023-02-25T05:21:57.500Z,97315.75
2023-02-25T05:24:24.103Z,97318.81
2023-02-25T05:26:51.736Z,97318.25
2023-02-25T05:29:18.733Z,97321.66
2023-02-25T05:31:45.492Z,97316.31
2023-02-25T05:34:12.187Z,97315.88
2023-02-25T05:36:38.761Z,97314.00
2023-02-25T05:41:43.665Z,97311.41
2023-02-25T05:44:11.320Z,97306.72
2023-02-25T05:46:37.906Z,97313.34
2023-02-25T05:49:04.629Z,97318.97
2023-02-25T05:51:31.188Z,97315.81
2023-02-25T05:53:57.701Z,97320.78
2023-02-25T05:56:26.115Z,97316.53
2023-02-25T05:58:54.003Z,97327.28
2023-02-25T06:01:28.816Z,97329.63
2023-02-25T06:03:58.870Z,97337.66
2023-02-25T06:06:28.524Z,97340.72
2023-02-25T06:08:55.764Z,97346.22
2023-02-25T06:11:25.753Z,97342.03
2023-02-25T06:13:54.637Z,97351.19
2023-02-25T06:16:22.552Z,97338.34
2023-02-25T06:18:51.550Z,97338.88
2023-02-25T06:21:18.801Z,97336.19
2023-02-25T06:23:45.374Z,97341.22
2023-02-25T06:26:14.150Z,97344.56
2023-02-25T06:28:40.748Z,97350.81
2023-02-25T06:31:11.300Z,97361.47
2023-02-25T06:33:38.327Z,97356.41
2023-02-25T06:36:05.883Z,97359.63
2023-02-25T06:38:36.405Z,97357.16
2023-02-25T06:41:22.523Z,97357.69
2023-02-25T06:43:52.659Z,97357.16
2023-02-25T06:46:23.680Z,97347.44
2023-02-25T06:48:50.436Z,97349.22
2023-02-25T06:51:17.075Z,97347.84
2023-02-25T06:53:45.051Z,97352.03
2023-02-25T06:56:13.603Z,97359.22
2023-02-25T07:01:18.514Z,97370.44
2023-02-25T07:03:45.127Z,97362.59
2023-02-25T07:06:12.162Z,97370.56
2023-02-25T07:08:38.684Z,97369.22
2023-02-25T07:11:17.067Z,97372.13
2023-02-25T07:13:44.319Z,97371.84
2023-02-25T07:16:12.569Z,97374.09
2023-02-25T07:18:40.103Z,97374.47
2023-02-25T07:21:06.690Z,97382.91
2023-02-25T07:23:33.710Z,97384.72
2023-02-25T07:26:09.153Z,97391.88
2023-02-25T07:28:36.277Z,97386.69
2023-02-25T07:31:04.664Z,97394.72
2023-02-25T07:33:31.591Z,97391.09
2023-02-25T07:35:58.361Z,97396.59
2023-02-25T07:38:24.914Z,97395.38
2023-02-25T07:40:51.479Z,97392.91
2023-02-25T07:43:18.017Z,97391.97
2023-02-25T07:45:45.307Z,97390.69
2023-02-25T07:48:11.910Z,97393.41
2023-02-25T07:50:38.482Z,97398.72
2023-02-25T07:53:05.063Z,97394.97
2023-02-25T07:55:31.579Z,97389.13
2023-02-25T07:57:58.158Z,97392.25
2023-02-25T08:00:24.793Z,97386.13
2023-02-25T08:02:51.466Z,97389.00
2023-02-25T08:08:00.627Z,97381.75
2023-02-25T08:10:27.289Z,97379.75
2023-02-25T08:12:53.915Z,97383.91
2023-02-25T08:17:53.186Z,97373.31
2023-02-25T08:20:19.861Z,97377.91
2023-02-25T08:22:46.494Z,97373.31
2023-02-25T08:25:13.053Z,97373.97
2023-02-25T08:27:40.012Z,97380.41
2023-02-25T08:30:08.736Z,97396.50
2023-02-25T08:32:36.829Z,97386.88
2023-02-25T08:35:04.250Z,97396.28
2023-02-25T08:37:30.917Z,97393.22
2023-02-25T08:39:57.446Z,97388.66
2023-02-25T08:42:24.379Z,97386.00
2023-02-25T08:44:50.940Z,97388.00
2023-02-25T08:47:17.567Z,97384.38
2023-02-25T08:49:44.172Z,97387.31
2023-02-25T08:52:14.135Z,97398.72
2023-02-25T08:54:41.384Z,97400.13
2023-02-25T08:57:07.915Z,97385.94
2023-02-25T08:59:36.024Z,97392.50
2023-02-25T09:02:05.522Z,97392.50
2023-02-25T09:04:34.067Z,97394.91
2023-02-25T09:07:01.685Z,97392.44
2023-02-25T09:09:28.329Z,97385.22
2023-02-25T09:11:55.574Z,97391.34
2023-02-25T09:14:22.781Z,97392.91
2023-02-25T09:16:49.709Z,97390.06
2023-02-25T09:19:18.428Z,97391.75
2023-02-25T09:21:48.405Z,97382.50
2023-02-25T09:24:16.298Z,97390.03
2023-02-25T09:26:42.929Z,97374.13
2023-02-25T09:29:10.253Z,97379.44
2023-02-25T09:31:37.849Z,97380.34
2023-02-25T09:34:07.544Z,97380.53
2023-02-25T09:36:34.331Z,97376.38
2023-02-25T09:39:00.892Z,97373.31
2023-02-25T09:41:55.772Z,97373.69
2023-02-25T09:44:34.305Z,97382.47
2023-02-25T09:47:05.265Z,97360.97
2023-02-25T09:49:42.988Z,97372.44
2023-02-25T09:52:18.738Z,97372.28
2023-02-25T09:54:52.875Z,97382.78
2023-02-25T09:57:23.458Z,97380.97
2023-02-25T09:59:53.685Z,97381.09
2023-02-25T10:02:35.480Z,97388.63
2023-02-25T10:05:21.718Z,97384.22
2023-02-25T10:07:58.230Z,97379.47
2023-02-25T10:10:44.676Z,97381.47
2023-02-25T10:13:35.909Z,97389.00
2023-02-25T10:16:14.435Z,97384.78
2023-02-25T10:19:03.927Z,97381.25
2023-02-25T10:21:42.758Z,97383.19
2023-02-25T10:24:34.811Z,97385.00
2023-02-25T10:27:19.311Z,97386.84
2023-02-25T10:29:50.508Z,97381.44
2023-02-25T10:32:17.241Z,97385.25
2023-02-25T10:34:44.035Z,97380.09
2023-02-25T10:37:27.305Z,97384.41
2023-02-25T10:39:58.903Z,97380.91
2023-02-25T10:42:26.300Z,97369.84
2023-02-25T10:44:54.719Z,97361.59
2023-02-25T10:47:31.360Z,97364.56
2023-02-25T10:50:44.913Z,97360.94
2023-02-25T10:53:17.834Z,97369.53
2023-02-25T10:55:44.381Z,97356.59
2023-02-25T10:58:25.906Z,97342.13
2023-02-25T11:00:57.981Z,97351.09
2023-02-25T11:03:26.340Z,97356.00
2023-02-25T11:06:07.135Z,97354.22
2023-02-25T11:08:34.559Z,97354.44
2023-02-25T11:11:13.531Z,97345.50
2023-02-25T11:13:40.815Z,97353.44
2023-02-25T11:16:10.661Z,97356.50
2023-02-25T11:18:38.310Z,97352.06
2023-02-25T11:21:07.983Z,97348.03
2023-02-25T11:23:44.426Z,97336.31
2023-02-25T11:26:30.382Z,97340.75
2023-02-25T11:29:01.948Z,97342.84
2023-02-25T11:31:34.967Z,97343.88
2023-02-25T11:34:06.929Z,97337.34
2023-02-25T11:36:38.687Z,97344.47
2023-02-25T11:39:16.662Z,97355.13
2023-02-25T11:41:49.677Z,97349.63
2023-02-25T11:47:25.008Z,97351.94
2023-02-25T11:50:06.994Z,97354.34
2023-02-25T11:52:45.703Z,97355.25
2023-02-25T11:55:28.960Z,97348.31
2023-02-25T11:58:21.999Z,97346.44
2023-02-25T12:00:48.488Z,97339.94
2023-02-25T12:03:23.724Z,97347.03
2023-02-25T12:05:50.522Z,97329.78
2023-02-25T12:08:42.106Z,97336.66
2023-02-25T12:11:30.683Z,97335.25
2023-02-25T12:14:10.488Z,97335.34
2023-02-25T12:16:56.156Z,97331.06
2023-02-25T12:22:49.438Z,97335.97
2023-02-25T12:25:31.025Z,97337.97
2023-02-25T12:28:06.803Z,97344.97
2023-02-25T12:30:57.705Z,97352.50
2023-02-25T12:33:46.233Z,97351.63
2023-02-25T12:36:49.032Z,97366.19
2023-02-25T12:39:33.811Z,97368.28
2023-02-25T12:45:05.777Z,97350.47
2023-02-25T12:47:35.146Z,97351.63
2023-02-25T12:50:21.644Z,97348.84
2023-02-25T12:53:14.206Z,97345.53
2023-02-25T12:55:52.894Z,97347.19
2023-02-25T12:59:10.760Z,97342.91
2023-02-25T13:02:02.231Z,97336.81
2023-02-25T13:08:03.826Z,97323.75
2023-02-25T13:13:35.934Z,97310.97
2023-02-25T13:16:02.429Z,97314.94
2023-02-25T13:18:37.481Z,97311.16
2023-02-25T13:21:27.397Z,97316.22
2023-02-25T13:23:53.948Z,97316.91
2023-02-25T13:26:48.101Z,97313.78
2023-02-25T13:29:34.953Z,97319.50
2023-02-25T13:32:49.863Z,97323.47
2023-02-25T13:35:33.461Z,97323.88
2023-02-25T13:38:05.664Z,97327.81
2023-02-25T13:40:42.871Z,97323.94
2023-02-25T13:43:21.733Z,97331.25
2023-02-25T13:46:23.035Z,97324.31
2023-02-25T13:51:56.896Z,97317.13
2023-02-25T13:54:26.230Z,97311.03
2023-02-25T13:57:00.133Z,97310.06
2023-02-25T13:59:49.692Z,97309.59
2023-02-25T14:02:34.611Z,97313.47
2023-02-25T14:05:35.340Z,97311.59
2023-02-25T14:08:28.862Z,97312.19
2023-02-25T14:11:31.110Z,97305.78
2023-02-25T14:14:25.236Z,97308.59
2023-02-25T14:16:58.995Z,97301.94
2023-02-25T14:19:57.800Z,97300.84
2023-02-25T14:22:39.293Z,97305.69
2023-02-25T14:25:27.985Z,97304.88
2023-02-25T14:28:17.336Z,97307.22
2023-02-25T14:30:58.783Z,97294.38
2023-02-25T14:33:39.580Z,97300.56
2023-02-25T14:36:26.768Z,97298.28
2023-02-25T14:39:15.223Z,97300.25
2023-02-25T14:42:02.312Z,97304.59
2023-02-25T14:45:10.132Z,97298.63
2023-02-25T14:48:08.900Z,97292.94
2023-02-25T14:50:50.934Z,97302.66
2023-02-25T14:53:31.116Z,97301.06
2023-02-25T14:56:23.868Z,97301.03
2023-02-25T14:59:07.350Z,97305.13
2023-02-25T15:01:44.427Z,97309.56
2023-02-25T15:04:35.727Z,97314.34
2023-02-25T15:10:00.317Z,97320.63
2023-02-25T15:13:05.260Z,97324.56
2023-02-25T15:15:50.816Z,97322.38
2023-02-25T15:18:38.560Z,97328.13
2023-02-25T15:21:29.951Z,97321.94
2023-02-25T15:23:56.775Z,97332.63
2023-02-25T15:26:39.339Z,97335.56
2023-02-25T15:29:18.598Z,97343.28
2023-02-25T15:32:10.836Z,97339.94
2023-02-25T15:37:24.293Z,97342.94
2023-02-25T15:39:56.217Z,97348.47
2023-02-25T15:45:27.893Z,97337.63
2023-02-25T15:48:19.397Z,97371.19
2023-02-25T15:53:21.154Z,97376.84
2023-02-25T15:56:03.626Z,97384.31
2023-02-25T15:58:30.363Z,97384.63
2023-02-25T16:01:00.891Z,97387.81
2023-02-25T16:03:36.259Z,97385.19
2023-02-25T16:06:21.345Z,97398.72
2023-02-25T16:09:06.803Z,97411.66
2023-02-25T16:12:03.932Z,97412.34
2023-02-25T16:14:34.111Z,97413.56
2023-02-25T16:17:06.232Z,97399.59
2023-02-25T16:19:39.405Z,97393.06
2023-02-25T16:22:40.214Z,97393.06
2023-02-25T16:25:15.324Z,97396.38
2023-02-25T16:27:47.703Z,97405.97
2023-02-25T16:30:40.301Z,97412.88
2023-02-25T16:33:20.585Z,97407.59
2023-02-25T16:36:19.073Z,97415.56
2023-02-25T16:39:10.165Z,97421.84
2023-02-25T16:41:38.843Z,97418.00
2023-02-25T16:44:06.903Z,97425.94
2023-02-25T16:46:36.102Z,97427.59
2023-02-25T16:49:08.654Z,97430.44
2023-02-25T16:51:41.688Z,97438.81
2023-02-25T16:54:31.366Z,97437.53
2023-02-25T16:57:01.077Z,97437.72
2023-02-25T16:59:31.816Z,97445.47
2023-02-25T17:02:09.224Z,97450.97
2023-02-25T17:04:37.369Z,97444.63
2023-02-25T17:07:13.252Z,97450.19
2023-02-25T17:09:53.582Z,97454.03
2023-02-25T17:12:28.478Z,97463.34
2023-02-25T17:14:56.118Z,97468.31
2023-02-25T17:17:30.501Z,97469.72
2023-02-25T17:19:58.140Z,97467.63
2023-02-25T17:22:26.581Z,97462.75
2023-02-25T17:24:56.997Z,97473.13
2023-02-25T17:27:24.886Z,97489.34
2023-02-25T17:29:51.830Z,97496.56
2023-02-25T17:32:23.152Z,97503.28
2023-02-25T17:34:53.637Z,97519.66
2023-02-25T17:37:21.336Z,97529.72
2023-02-25T17:39:48.891Z,97548.69
2023-02-25T17:42:36.492Z,97541.03
2023-02-25T17:45:08.359Z,97551.38
2023-02-25T17:47:37.243Z,97561.47
2023-02-25T17:50:29.421Z,97567.66
2023-02-25T17:52:56.227Z,97569.50
2023-02-25T17:55:34.459Z,97564.00
2023-02-25T17:58:02.297Z,97573.34
2023-02-25T18:00:33.728Z,97575.81
2023-02-25T18:03:24.670Z,97573.81
2023-02-25T18:06:00.549Z,97574.75
2023-02-25T18:08:30.166Z,97582.47
2023-02-25T18:10:56.863Z,97577.91
2023-02-25T18:13:33.895Z,97578.69
2023-02-25T18:16:13.209Z,97584.53
2023-02-25T18:18:40.538Z,97585.41
2023-02-25T18:21:10.742Z,97590.56
2023-02-25T18:23:37.470Z,97589.47
2023-02-25T18:26:17.770Z,97596.09
2023-02-25T18:28:45.902Z,97590.75
2023-02-25T18:31:14.818Z,97594.13
2023-02-25T18:33:41.649Z,97592.44
2023-02-25T18:36:09.293Z,97589.84
2023-02-25T18:38:37.746Z,97588.59
2023-02-25T18:41:08.160Z,97598.06
2023-02-25T18:43:40.066Z,97603.88
2023-02-25T18:46:06.595Z,97601.97
2023-02-25T18:48:33.370Z,97603.19
2023-02-25T18:50:59.959Z,97602.53
2023-02-25T18:53:27.078Z,97595.16
2023-02-25T18:58:34.820Z,97591.84
2023-02-25T19:01:01.633Z,97600.81
2023-02-25T19:03:39.324Z,97595.22
2023-02-25T19:06:06.641Z,97606.47
2023-02-25T19:08:33.517Z,97596.09
2023-02-25T19:11:00.170Z,97603.41
2023-02-25T19:16:09.964Z,97610.72
2023-02-25T19:18:37.711Z,97617.00
2023-02-25T19:21:06.509Z,97619.13
2023-02-25T19:23:33.010Z,97621.41
2023-02-25T19:26:00.601Z,97621.97
2023-02-25T19:28:27.465Z,97623.16
2023-02-25T19:30:54.158Z,97627.31
2023-02-25T19:33:20.772Z,97633.84
2023-02-25T19:35:47.312Z,97635.25
2023-02-25T19:38:19.020Z,97638.09
2023-02-25T19:40:47.782Z,97639.91
2023-02-25T19:43:18.044Z,97647.72
2023-02-25T19:45:44.662Z,97644.91
2023-02-25T19:48:11.247Z,97649.97
2023-02-25T19:53:14.262Z,97658.72
2023-02-25T19:55:43.237Z,97663.59
2023-02-25T19:58:09.838Z,97665.16
2023-02-25T20:00:36.406Z,97680.09
2023-02-25T20:03:03.037Z,97675.81
2023-02-25T20:05:29.538Z,97672.38
2023-02-25T20:07:56.201Z,97679.69
2023-02-25T20:10:22.807Z,97681.41
2023-02-25T20:12:49.454Z,97687.97
2023-02-25T20:15:16.997Z,97687.91
2023-02-25T20:17:45.380Z,97691.53
2023-02-25T20:20:14.060Z,97689.94
2023-02-25T20:22:41.116Z,97694.22
2023-02-25T20:25:08.988Z,97695.75
2023-02-25T20:27:37.186Z,97699.03
2023-02-25T20:30:04.874Z,97697.34
2023-02-25T20:35:02.982Z,97698.69
2023-02-25T20:37:33.815Z,97700.50
2023-02-25T20:40:00.743Z,97699.84
2023-02-25T20:42:30.655Z,97706.69
2023-02-25T20:44:58.653Z,97712.81
2023-02-25T20:47:31.597Z,97713.41
2023-02-25T20:49:58.595Z,97715.31
2023-02-25T20:52:26.940Z,97715.63
2023-02-25T20:54:54.322Z,97723.13
2023-02-25T20:57:22.858Z,97728.53
2023-02-25T20:59:49.968Z,97728.91
2023-02-25T21:02:17.051Z,97720.97
2023-02-25T21:04:44.308Z,97725.03
2023-02-25T21:07:11.373Z,97729.56
2023-02-25T21:09:38.095Z,97734.38
2023-02-25T21:12:05.449Z,97730.44
2023-02-25T21:14:32.053Z,97742.06
2023-02-25T21:16:58.774Z,97740.91
2023-02-25T21:19:28.256Z,97743.50
2023-02-25T21:21:55.287Z,97737.81
2023-02-25T21:24:22.330Z,97736.09
2023-02-25T21:26:48.961Z,97750.41
2023-02-25T21:29:15.994Z,97751.97
2023-02-25T21:31:43.067Z,97746.78
2023-02-25T21:34:12.840Z,97747.81
2023-02-25T21:36:40.453Z,97750.50
2023-02-25T21:39:09.325Z,97753.00
2023-02-25T21:41:38.170Z,97756.53
2023-02-25T21:44:04.961Z,97769.09
2023-02-25T21:46:31.567Z,97767.91
2023-02-25T21:48:58.220Z,97772.63
2023-02-25T21:51:27.069Z,97776.59
2023-02-25T21:53:58.423Z,97776.09
2023-02-25T21:56:26.092Z,97783.41
2023-02-25T21:58:58.744Z,97782.63
2023-02-25T22:01:31.319Z,97792.13
2023-02-25T22:03:58.388Z,97784.66
2023-02-25T22:06:26.689Z,97786.91
2023-02-25T22:08:54.258Z,97787.72
2023-02-25T22:11:32.629Z,97780.75
2023-02-25T22:14:01.006Z,97793.47
2023-02-25T22:16:28.651Z,97792.81
2023-02-25T22:18:56.473Z,97783.81
2023-02-25T22:21:25.983Z,97782.09
2023-02-25T22:23:55.073Z,97783.13
2023-02-25T22:26:24.716Z,97792.59
2023-02-25T22:29:01.937Z,97797.97
2023-02-25T22:31:29.250Z,97796.38
2023-02-25T22:33:57.057Z,97789.75
2023-02-25T22:36:24.523Z,97786.06
2023-02-25T22:38:51.401Z,97792.41
2023-02-25T22:41:29.446Z,97797.13
2023-02-25T22:43:58.524Z,97799.19
2023-02-25T22:46:30.441Z,97803.00
2023-02-25T22:51:42.932Z,97799.03
2023-02-25T22:56:43.882Z,97810.91
2023-02-25T22:59:10.660Z,97807.56
2023-02-25T23:01:37.745Z,97817.88
2023-02-25T23:04:05.603Z,97810.44
2023-02-25T23:06:43.294Z,97818.16
2023-02-25T23:09:10.738Z,97825.28
2023-02-25T23:11:40.624Z,97820.56
2023-02-25T23:14:07.447Z,97814.53
2023-02-25T23:16:35.388Z,97814.88
2023-02-25T23:19:04.694Z,97816.31
2023-02-25T23:21:32.488Z,97816.16
2023-02-25T23:24:00.527Z,97825.66
2023-02-25T23:29:07.746Z,97833.69
2023-02-25T23:31:37.175Z,97828.66
2023-02-25T23:34:10.272Z,97820.13
2023-02-25T23:36:38.686Z,97823.13
2023-02-25T23:39:06.718Z,97825.50
2023-02-25T23:41:36.911Z,97821.69
2023-02-25T23:44:04.368Z,97817.72
2023-02-25T23:46:32.010Z,97821.69
2023-02-25T23:49:01.489Z,97833.25
2023-02-25T23:51:28.695Z,97829.13
2023-02-25T23:53:57.175Z,97834.00
2023-02-25T23:56:24.703Z,97838.00
2023-02-25T23:58:53.854Z,97837.84
